sensor_id;sensor_type;location;lat;lon;timestamp;pressure;altitude;pressure_sealevel;temperature;humidity
76611;BME280;65503;48.534;9.062;2023-03-26T00:01:12;96525.50;;;8.94;69.40
76611;BME280;65503;48.534;9.062;2023-03-26T00:03:41;96529.50;;;8.97;69.60
76611;BME280;65503;48.534;9.062;2023-03-26T00:06:12;96533.97;;;8.96;69.57
76611;BME280;65503;48.534;9.062;2023-03-26T00:08:41;96533.50;;;8.99;69.66
76611;BME280;65503;48.534;9.062;2023-03-26T00:11:09;96535.66;;;9.02;69.51
76611;BME280;65503;48.534;9.062;2023-03-26T00:13:36;96541.38;;;9.11;67.98
76611;BME280;65503;48.534;9.062;2023-03-26T00:16:03;96554.25;;;8.89;68.18
76611;BME280;65503;48.534;9.062;2023-03-26T00:18:30;96547.66;;;8.98;68.80
76611;BME280;65503;48.534;9.062;2023-03-26T00:20:57;96546.75;;;9.04;68.99
76611;BME280;65503;48.534;9.062;2023-03-26T00:23:26;96541.03;;;9.07;68.41
76611;BME280;65503;48.534;9.062;2023-03-26T00:25:52;96546.25;;;9.07;69.12
76611;BME280;65503;48.534;9.062;2023-03-26T00:28:21;96535.78;;;9.07;68.91
76611;BME280;65503;48.534;9.062;2023-03-26T00:30:48;96546.06;;;8.97;68.03
76611;BME280;65503;48.534;9.062;2023-03-26T00:33:16;96550.59;;;9.13;68.22
76611;BME280;65503;48.534;9.062;2023-03-26T00:35:43;96552.19;;;9.15;67.72
76611;BME280;65503;48.534;9.062;2023-03-26T00:38:13;96548.06;;;9.19;67.68
76611;BME280;65503;48.534;9.062;2023-03-26T00:40:40;96535.53;;;9.21;67.65
76611;BME280;65503;48.534;9.062;2023-03-26T00:43:09;96527.56;;;9.16;68.53
76611;BME280;65503;48.534;9.062;2023-03-26T00:45:47;96529.16;;;9.17;68.07
76611;BME280;65503;48.534;9.062;2023-03-26T00:48:15;96535.97;;;9.18;68.36
76611;BME280;65503;48.534;9.062;2023-03-26T00:50:44;96528.00;;;9.12;68.58
76611;BME280;65503;48.534;9.062;2023-03-26T00:53:12;96527.19;;;9.12;67.99
76611;BME280;65503;48.534;9.062;2023-03-26T00:55:40;96517.50;;;9.12;68.54
76611;BME280;65503;48.534;9.062;2023-03-26T00:58:07;96515.25;;;9.04;69.09
76611;BME280;65503;48.534;9.062;2023-03-26T01:00:55;96521.06;;;8.95;69.92
76611;BME280;65503;48.534;9.062;2023-03-26T01:03:24;96517.53;;;8.89;69.82
76611;BME280;65503;48.534;9.062;2023-03-26T01:08:47;96510.13;;;8.75;70.43
76611;BME280;65503;48.534;9.062;2023-03-26T01:11:27;96499.31;;;8.71;70.91
76611;BME280;65503;48.534;9.062;2023-03-26T01:13:58;96492.91;;;8.67;70.70
76611;BME280;65503;48.534;9.062;2023-03-26T01:16:26;96498.16;;;8.67;70.71
76611;BME280;65503;48.534;9.062;2023-03-26T01:18:55;96489.38;;;8.61;71.17
76611;BME280;65503;48.534;9.062;2023-03-26T01:21:27;96483.81;;;8.58;71.11
76611;BME280;65503;48.534;9.062;2023-03-26T01:24:03;96479.00;;;8.55;71.65
76611;BME280;65503;48.534;9.062;2023-03-26T01:32:26;96464.66;;;8.46;72.19
76611;BME280;65503;48.534;9.062;2023-03-26T01:37:53;96468.75;;;8.42;71.55
76611;BME280;65503;48.534;9.062;2023-03-26T01:40:27;96465.56;;;8.40;71.97
76611;BME280;65503;48.534;9.062;2023-03-26T01:43:16;96449.25;;;8.38;71.49
76611;BME280;65503;48.534;9.062;2023-03-26T01:45:46;96436.63;;;8.35;72.65
76611;BME280;65503;48.534;9.062;2023-03-26T01:48:14;96432.50;;;8.39;71.53
76611;BME280;65503;48.534;9.062;2023-03-26T01:50:41;96434.56;;;8.37;71.52
76611;BME280;65503;48.534;9.062;2023-03-26T01:53:08;96424.88;;;8.37;71.96
76611;BME280;65503;48.534;9.062;2023-03-26T01:58:57;96416.78;;;8.39;72.14
76611;BME280;65503;48.534;9.062;2023-03-26T02:01:41;96415.31;;;8.43;71.29
76611;BME280;65503;48.534;9.062;2023-03-26T02:06:51;96400.25;;;8.38;71.95
76611;BME280;65503;48.534;9.062;2023-03-26T02:09:21;96397.88;;;8.37;72.10
76611;BME280;65503;48.534;9.062;2023-03-26T02:11:50;96383.28;;;8.41;71.82
76611;BME280;65503;48.534;9.062;2023-03-26T02:14:16;96385.31;;;8.39;71.99
76611;BME280;65503;48.534;9.062;2023-03-26T02:16:43;96377.69;;;8.37;72.07
76611;BME280;65503;48.534;9.062;2023-03-26T02:19:13;96380.88;;;8.39;71.62
76611;BME280;65503;48.534;9.062;2023-03-26T02:21:47;96371.31;;;8.33;71.52
76611;BME280;65503;48.534;9.062;2023-03-26T02:24:20;96367.34;;;8.31;72.14
76611;BME280;65503;48.534;9.062;2023-03-26T02:26:46;96367.09;;;8.32;71.71
76611;BME280;65503;48.534;9.062;2023-03-26T02:29:13;96368.53;;;8.28;71.72
76611;BME280;65503;48.534;9.062;2023-03-26T02:31:46;96355.66;;;8.26;71.81
76611;BME280;65503;48.534;9.062;2023-03-26T02:34:14;96350.88;;;8.23;72.03
76611;BME280;65503;48.534;9.062;2023-03-26T02:36:41;96347.25;;;8.24;72.19
76611;BME280;65503;48.534;9.062;2023-03-26T02:39:09;96347.25;;;8.24;72.09
76611;BME280;65503;48.534;9.062;2023-03-26T02:41:39;96342.00;;;8.24;72.34
76611;BME280;65503;48.534;9.062;2023-03-26T02:44:06;96335.97;;;8.24;72.45
76611;BME280;65503;48.534;9.062;2023-03-26T02:46:32;96333.13;;;8.25;72.59
76611;BME280;65503;48.534;9.062;2023-03-26T02:48:59;96325.41;;;8.31;72.40
76611;BME280;65503;48.534;9.062;2023-03-26T02:51:25;96317.63;;;8.36;72.32
76611;BME280;65503;48.534;9.062;2023-03-26T02:53:52;96317.16;;;8.39;72.17
76611;BME280;65503;48.534;9.062;2023-03-26T02:56:19;96303.03;;;8.40;72.34
76611;BME280;65503;48.534;9.062;2023-03-26T02:58:45;96300.50;;;8.45;72.42
76611;BME280;65503;48.534;9.062;2023-03-26T03:01:12;96292.63;;;8.45;72.08
76611;BME280;65503;48.534;9.062;2023-03-26T03:03:38;96291.63;;;8.46;72.36
76611;BME280;65503;48.534;9.062;2023-03-26T03:06:05;96292.19;;;8.48;72.26
76611;BME280;65503;48.534;9.062;2023-03-26T03:08:32;96279.88;;;8.48;72.50
76611;BME280;65503;48.534;9.062;2023-03-26T03:11:07;96279.88;;;8.48;71.95
76611;BME280;65503;48.534;9.062;2023-03-26T03:13:34;96270.97;;;8.49;71.99
76611;BME280;65503;48.534;9.062;2023-03-26T03:16:00;96273.84;;;8.48;72.63
76611;BME280;65503;48.534;9.062;2023-03-26T03:18:27;96270.03;;;8.55;72.13
76611;BME280;65503;48.534;9.062;2023-03-26T03:20:53;96269.91;;;8.62;71.68
76611;BME280;65503;48.534;9.062;2023-03-26T03:23:20;96265.59;;;8.56;71.90
76611;BME280;65503;48.534;9.062;2023-03-26T03:25:46;96260.34;;;8.56;72.08
76611;BME280;65503;48.534;9.062;2023-03-26T03:28:14;96258.28;;;8.58;71.94
76611;BME280;65503;48.534;9.062;2023-03-26T03:30:43;96252.56;;;8.61;71.94
76611;BME280;65503;48.534;9.062;2023-03-26T03:33:10;96254.97;;;8.62;72.09
76611;BME280;65503;48.534;9.062;2023-03-26T03:35:38;96243.22;;;8.65;71.95
76611;BME280;65503;48.534;9.062;2023-03-26T03:38:05;96235.44;;;8.70;71.76
76611;BME280;65503;48.534;9.062;2023-03-26T03:40:31;96232.25;;;8.68;72.08
76611;BME280;65503;48.534;9.062;2023-03-26T03:42:58;96230.41;;;8.68;71.98
76611;BME280;65503;48.534;9.062;2023-03-26T03:45:24;96234.16;;;8.73;71.96
76611;BME280;65503;48.534;9.062;2023-03-26T03:47:51;96228.13;;;8.72;72.00
76611;BME280;65503;48.534;9.062;2023-03-26T03:50:18;96229.72;;;8.73;71.92
76611;BME280;65503;48.534;9.062;2023-03-26T03:52:45;96225.56;;;8.77;71.83
76611;BME280;65503;48.534;9.062;2023-03-26T03:55:11;96235.13;;;8.83;71.16
76611;BME280;65503;48.534;9.062;2023-03-26T03:57:39;96227.75;;;8.80;71.79
76611;BME280;65503;48.534;9.062;2023-03-26T04:00:06;96219.25;;;8.90;71.72
76611;BME280;65503;48.534;9.062;2023-03-26T04:02:34;96214.78;;;8.90;71.68
76611;BME280;65503;48.534;9.062;2023-03-26T04:05:02;96202.25;;;8.92;71.71
76611;BME280;65503;48.534;9.062;2023-03-26T04:07:29;96210.84;;;8.88;72.02
76611;BME280;65503;48.534;9.062;2023-03-26T04:10:00;96202.25;;;8.92;72.03
76611;BME280;65503;48.534;9.062;2023-03-26T04:12:29;96195.41;;;8.91;72.23
76611;BME280;65503;48.534;9.062;2023-03-26T04:14:56;96184.91;;;8.91;72.17
76611;BME280;65503;48.534;9.062;2023-03-26T04:17:24;96193.25;;;8.88;72.27
76611;BME280;65503;48.534;9.062;2023-03-26T04:19:51;96194.28;;;8.87;72.33
76611;BME280;65503;48.534;9.062;2023-03-26T04:22:21;96186.97;;;8.89;72.48
76611;BME280;65503;48.534;9.062;2023-03-26T04:24:48;96183.31;;;8.90;72.18
76611;BME280;65503;48.534;9.062;2023-03-26T04:27:18;96182.84;;;8.93;72.24
76611;BME280;65503;48.534;9.062;2023-03-26T04:29:50;96173.63;;;8.91;72.29
76611;BME280;65503;48.534;9.062;2023-03-26T04:32:22;96169.47;;;8.95;71.77
76611;BME280;65503;48.534;9.062;2023-03-26T04:34:52;96170.75;;;8.92;71.96
76611;BME280;65503;48.534;9.062;2023-03-26T04:39:52;96166.63;;;8.96;71.86
76611;BME280;65503;48.534;9.062;2023-03-26T04:42:19;96161.13;;;8.98;71.26
76611;BME280;65503;48.534;9.062;2023-03-26T04:44:46;96153.03;;;8.99;71.10
76611;BME280;65503;48.534;9.062;2023-03-26T04:47:16;96151.97;;;9.00;71.34
76611;BME280;65503;48.534;9.062;2023-03-26T04:49:44;96147.88;;;9.04;71.35
76611;BME280;65503;48.534;9.062;2023-03-26T04:52:13;96131.84;;;9.06;71.54
76611;BME280;65503;48.534;9.062;2023-03-26T04:54:42;96118.34;;;9.14;71.18
76611;BME280;65503;48.534;9.062;2023-03-26T04:57:16;96119.44;;;9.18;71.47
76611;BME280;65503;48.534;9.062;2023-03-26T04:59:44;96130.66;;;9.13;71.64
76611;BME280;65503;48.534;9.062;2023-03-26T05:02:11;96135.28;;;9.06;71.89
76611;BME280;65503;48.534;9.062;2023-03-26T05:04:38;96140.06;;;9.09;71.40
76611;BME280;65503;48.534;9.062;2023-03-26T05:07:05;96139.03;;;9.10;71.46
76611;BME280;65503;48.534;9.062;2023-03-26T05:09:32;96135.28;;;9.06;70.81
76611;BME280;65503;48.534;9.062;2023-03-26T05:11:58;96130.03;;;9.06;71.24
76611;BME280;65503;48.534;9.062;2023-03-26T05:14:25;96122.16;;;9.06;71.41
76611;BME280;65503;48.534;9.062;2023-03-26T05:16:52;96129.78;;;9.08;71.39
76611;BME280;65503;48.534;9.062;2023-03-26T05:19:18;96119.06;;;9.09;70.62
76611;BME280;65503;48.534;9.062;2023-03-26T05:21:45;96109.03;;;9.06;71.44
76611;BME280;65503;48.534;9.062;2023-03-26T05:24:11;96098.72;;;9.17;71.16
76611;BME280;65503;48.534;9.062;2023-03-26T05:26:37;96091.38;;;9.19;71.31
76611;BME280;65503;48.534;9.062;2023-03-26T05:29:04;96076.91;;;9.16;71.73
76611;BME280;65503;48.534;9.062;2023-03-26T05:31:30;96074.53;;;9.15;71.65
76611;BME280;65503;48.534;9.062;2023-03-26T05:33:58;96077.72;;;9.17;72.06
76611;BME280;65503;48.534;9.062;2023-03-26T05:36:25;96080.41;;;9.22;71.96
76611;BME280;65503;48.534;9.062;2023-03-26T05:38:53;96061.59;;;9.30;71.40
76611;BME280;65503;48.534;9.062;2023-03-26T05:41:20;96051.03;;;9.25;71.27
76611;BME280;65503;48.534;9.062;2023-03-26T05:43:46;96054.16;;;9.22;71.50
76611;BME280;65503;48.534;9.062;2023-03-26T05:46:14;96051.53;;;9.22;71.79
76611;BME280;65503;48.534;9.062;2023-03-26T05:48:40;96049.44;;;9.24;71.97
76611;BME280;65503;48.534;9.062;2023-03-26T05:51:07;96046.34;;;9.27;71.90
76611;BME280;65503;48.534;9.062;2023-03-26T05:53:33;96047.13;;;9.27;72.07
76611;BME280;65503;48.534;9.062;2023-03-26T05:56:00;96045.38;;;9.33;71.85
76611;BME280;65503;48.534;9.062;2023-03-26T05:58:28;96033.28;;;9.32;72.09
76611;BME280;65503;48.534;9.062;2023-03-26T06:01:01;96027.53;;;9.35;71.73
76611;BME280;65503;48.534;9.062;2023-03-26T06:03:32;96030.19;;;9.40;71.56
76611;BME280;65503;48.534;9.062;2023-03-26T06:05:58;96034.47;;;9.46;71.73
76611;BME280;65503;48.534;9.062;2023-03-26T06:08:25;96021.44;;;9.51;71.69
76611;BME280;65503;48.534;9.062;2023-03-26T06:10:57;96016.66;;;9.48;71.38
76611;BME280;65503;48.534;9.062;2023-03-26T06:13:24;96014.59;;;9.50;71.13
76611;BME280;65503;48.534;9.062;2023-03-26T06:15:51;96018.25;;;9.49;70.64
76611;BME280;65503;48.534;9.062;2023-03-26T06:18:17;96004.09;;;9.50;69.86
76611;BME280;65503;48.534;9.062;2023-03-26T06:20:45;95999.50;;;9.62;68.32
76611;BME280;65503;48.534;9.062;2023-03-26T06:23:12;95994.81;;;9.69;67.14
76611;BME280;65503;48.534;9.062;2023-03-26T06:25:38;95997.25;;;9.76;64.93
76611;BME280;65503;48.534;9.062;2023-03-26T06:28:06;96002.81;;;9.79;65.50
76611;BME280;65503;48.534;9.062;2023-03-26T06:30:32;95994.38;;;9.77;65.44
76611;BME280;65503;48.534;9.062;2023-03-26T06:32:59;95989.13;;;9.77;66.36
76611;BME280;65503;48.534;9.062;2023-03-26T06:35:26;95993.88;;;9.80;65.98
76611;BME280;65503;48.534;9.062;2023-03-26T06:37:55;95974.97;;;9.78;66.27
76611;BME280;65503;48.534;9.062;2023-03-26T06:40:22;95967.03;;;9.73;66.56
76611;BME280;65503;48.534;9.062;2023-03-26T06:42:48;95966.13;;;9.63;67.11
76611;BME280;65503;48.534;9.062;2023-03-26T06:45:35;95962.31;;;9.48;68.42
76611;BME280;65503;48.534;9.062;2023-03-26T06:48:02;95964.13;;;9.48;69.14
76611;BME280;65503;48.534;9.062;2023-03-26T06:50:28;95948.19;;;9.54;69.50
76611;BME280;65503;48.534;9.062;2023-03-26T06:52:57;95939.47;;;9.49;68.04
76611;BME280;65503;48.534;9.062;2023-03-26T06:55:24;95944.69;;;9.44;68.57
76611;BME280;65503;48.534;9.062;2023-03-26T06:57:52;95929.34;;;9.36;68.79
76611;BME280;65503;48.534;9.062;2023-03-26T07:00:19;95919.44;;;9.43;68.51
76611;BME280;65503;48.534;9.062;2023-03-26T07:02:46;95922.13;;;9.48;69.16
76611;BME280;65503;48.534;9.062;2023-03-26T07:05:13;95915.88;;;9.54;69.00
76611;BME280;65503;48.534;9.062;2023-03-26T07:07:39;95925.25;;;9.45;66.90
76611;BME280;65503;48.534;9.062;2023-03-26T07:10:12;95915.88;;;9.54;68.18
76611;BME280;65503;48.534;9.062;2023-03-26T07:12:38;95907.16;;;9.48;68.05
76611;BME280;65503;48.534;9.062;2023-03-26T07:15:07;95908.75;;;9.49;68.68
76611;BME280;65503;48.534;9.062;2023-03-26T07:17:33;95903.00;;;9.52;68.87
76611;BME280;65503;48.534;9.062;2023-03-26T07:20:00;95900.03;;;9.44;68.31
76611;BME280;65503;48.534;9.062;2023-03-26T07:22:26;95889.81;;;9.47;68.94
76611;BME280;65503;48.534;9.062;2023-03-26T07:24:53;95884.88;;;9.51;69.13
76611;BME280;65503;48.534;9.062;2023-03-26T07:27:34;95880.13;;;9.48;69.08
76611;BME280;65503;48.534;9.062;2023-03-26T07:30:05;95870.44;;;9.53;68.44
76611;BME280;65503;48.534;9.062;2023-03-26T07:32:40;95874.88;;;9.48;68.51
76611;BME280;65503;48.534;9.062;2023-03-26T07:35:19;95857.38;;;9.32;68.38
76611;BME280;65503;48.534;9.062;2023-03-26T07:40:47;95862.69;;;9.37;69.16
76611;BME280;65503;48.534;9.062;2023-03-26T07:46:04;95834.03;;;9.62;69.01
76611;BME280;65503;48.534;9.062;2023-03-26T07:48:38;95828.25;;;9.65;69.82
76611;BME280;65503;48.534;9.062;2023-03-26T07:51:06;95844.53;;;9.62;70.12
76611;BME280;65503;48.534;9.062;2023-03-26T07:53:33;95839.22;;;9.57;70.65
76611;BME280;65503;48.534;9.062;2023-03-26T07:56:16;95848.13;;;9.51;70.76
76611;BME280;65503;48.534;9.062;2023-03-26T07:58:55;95835.50;;;9.53;70.00
76611;BME280;65503;48.534;9.062;2023-03-26T08:01:53;95830.06;;;9.60;70.51
76611;BME280;65503;48.534;9.062;2023-03-26T08:07:19;95840.34;;;9.66;70.96
76611;BME280;65503;48.534;9.062;2023-03-26T08:09:59;95838.25;;;9.68;70.70
76611;BME280;65503;48.534;9.062;2023-03-26T08:18:25;95824.03;;;9.64;71.96
76611;BME280;65503;48.534;9.062;2023-03-26T08:21:01;95831.66;;;9.61;72.62
76611;BME280;65503;48.534;9.062;2023-03-26T08:31:36;95810.13;;;10.01;72.36
76611;BME280;65503;48.534;9.062;2023-03-26T08:34:07;95800.19;;;10.08;72.12
76611;BME280;65503;48.534;9.062;2023-03-26T08:36:34;95800.72;;;10.15;72.36
76611;BME280;65503;48.534;9.062;2023-03-26T08:39:02;95815.97;;;10.13;72.66
76611;BME280;65503;48.534;9.062;2023-03-26T08:44:53;95802.81;;;10.08;72.81
76611;BME280;65503;48.534;9.062;2023-03-26T09:05:17;95815.03;;;9.92;73.30
76611;BME280;65503;48.534;9.062;2023-03-26T09:10:58;95821.16;;;10.03;73.52
76611;BME280;65503;48.534;9.062;2023-03-26T09:13:46;95822.69;;;10.35;73.65
76611;BME280;65503;48.534;9.062;2023-03-26T09:22:14;95827.31;;;10.75;72.42
76611;BME280;65503;48.534;9.062;2023-03-26T09:25:24;95836.84;;;10.97;72.82
76611;BME280;65503;48.534;9.062;2023-03-26T09:31:23;95845.56;;;11.07;72.09
76611;BME280;65503;48.534;9.062;2023-03-26T09:40:34;95819.53;;;12.02;70.57
76611;BME280;65503;48.534;9.062;2023-03-26T09:45:51;95820.50;;;12.31;67.83
76611;BME280;65503;48.534;9.062;2023-03-26T09:51:17;95824.19;;;12.40;67.98
76611;BME280;65503;48.534;9.062;2023-03-26T09:54:09;95820.78;;;12.35;68.28
76611;BME280;65503;48.534;9.062;2023-03-26T09:56:59;95824.25;;;12.20;66.82
76611;BME280;65503;48.534;9.062;2023-03-26T10:02:41;95799.69;;;10.83;67.54
76611;BME280;65503;48.534;9.062;2023-03-26T10:14:11;95816.44;;;10.05;68.95
76611;BME280;65503;48.534;9.062;2023-03-26T10:22:29;95818.31;;;10.14;66.90
76611;BME280;65503;48.534;9.062;2023-03-26T10:31:04;95801.84;;;11.11;64.10
76611;BME280;65503;48.534;9.062;2023-03-26T10:37:20;95817.09;;;12.95;63.02
76611;BME280;65503;48.534;9.062;2023-03-26T10:40:22;95811.69;;;13.59;59.88
76611;BME280;65503;48.534;9.062;2023-03-26T10:53:43;95824.47;;;12.39;61.15
76611;BME280;65503;48.534;9.062;2023-03-26T10:56:19;95810.56;;;12.18;59.64
76611;BME280;65503;48.534;9.062;2023-03-26T10:58:48;95813.75;;;11.65;62.14
76611;BME280;65503;48.534;9.062;2023-03-26T11:01:21;95820.59;;;11.86;62.75
76611;BME280;65503;48.534;9.062;2023-03-26T11:03:53;95828.97;;;12.28;61.37
76611;BME280;65503;48.534;9.062;2023-03-26T11:06:35;95829.41;;;12.56;59.37
76611;BME280;65503;48.534;9.062;2023-03-26T11:09:19;95842.34;;;12.57;59.26
76611;BME280;65503;48.534;9.062;2023-03-26T11:17:55;95842.00;;;14.54;54.59
76611;BME280;65503;48.534;9.062;2023-03-26T11:20:38;95831.72;;;14.95;54.34
76611;BME280;65503;48.534;9.062;2023-03-26T11:23:35;95824.16;;;14.64;53.38
76611;BME280;65503;48.534;9.062;2023-03-26T11:26:06;95827.50;;;14.51;53.60
76611;BME280;65503;48.534;9.062;2023-03-26T11:31:59;95827.44;;;14.99;54.97
76611;BME280;65503;48.534;9.062;2023-03-26T11:34:33;95813.84;;;15.24;51.68
76611;BME280;65503;48.534;9.062;2023-03-26T11:37:05;95831.38;;;15.39;52.46
76611;BME280;65503;48.534;9.062;2023-03-26T11:39:47;95825.28;;;15.38;51.93
76611;BME280;65503;48.534;9.062;2023-03-26T11:42:16;95815.66;;;15.80;51.30
76611;BME280;65503;48.534;9.062;2023-03-26T11:44:52;95821.00;;;15.42;51.04
76611;BME280;65503;48.534;9.062;2023-03-26T11:47:25;95814.13;;;15.41;52.04
76611;BME280;65503;48.534;9.062;2023-03-26T11:49:58;95814.31;;;15.96;49.55
76611;BME280;65503;48.534;9.062;2023-03-26T11:52:26;95812.63;;;16.32;48.70
76611;BME280;65503;48.534;9.062;2023-03-26T11:54:52;95808.31;;;15.58;49.55
76611;BME280;65503;48.534;9.062;2023-03-26T11:57:26;95804.97;;;15.52;50.16
76611;BME280;65503;48.534;9.062;2023-03-26T11:59:59;95806.59;;;15.48;51.14
76611;BME280;65503;48.534;9.062;2023-03-26T12:02:39;95810.16;;;16.49;49.15
76611;BME280;65503;48.534;9.062;2023-03-26T12:08:02;95799.75;;;16.39;48.05
76611;BME280;65503;48.534;9.062;2023-03-26T12:10:34;95791.59;;;16.49;47.97
76611;BME280;65503;48.534;9.062;2023-03-26T12:15:49;95780.16;;;15.62;43.45
76611;BME280;65503;48.534;9.062;2023-03-26T12:18:33;95786.53;;;15.05;44.31
76611;BME280;65503;48.534;9.062;2023-03-26T12:21:09;95780.84;;;15.67;44.83
76611;BME280;65503;48.534;9.062;2023-03-26T12:23:42;95780.16;;;16.35;43.47
76611;BME280;65503;48.534;9.062;2023-03-26T12:26:18;95772.91;;;16.27;42.23
76611;BME280;65503;48.534;9.062;2023-03-26T12:28:48;95759.72;;;16.22;43.52
76611;BME280;65503;48.534;9.062;2023-03-26T12:31:16;95753.97;;;15.88;43.63
76611;BME280;65503;48.534;9.062;2023-03-26T12:34:06;95755.84;;;16.01;40.57
76611;BME280;65503;48.534;9.062;2023-03-26T12:36:33;95754.97;;;14.89;41.93
76611;BME280;65503;48.534;9.062;2023-03-26T12:39:20;95747.13;;;15.36;40.84
76611;BME280;65503;48.534;9.062;2023-03-26T12:42:25;95738.09;;;14.85;41.55
76611;BME280;65503;48.534;9.062;2023-03-26T12:45:12;95745.19;;;15.41;40.96
76611;BME280;65503;48.534;9.062;2023-03-26T12:47:39;95735.38;;;14.91;40.43
76611;BME280;65503;48.534;9.062;2023-03-26T12:56:19;95722.75;;;15.98;39.06
76611;BME280;65503;48.534;9.062;2023-03-26T12:59:04;95726.47;;;15.51;38.15
76611;BME280;65503;48.534;9.062;2023-03-26T13:05:32;95711.34;;;15.98;36.81
76611;BME280;65503;48.534;9.062;2023-03-26T13:13:43;95696.56;;;15.64;38.48
76611;BME280;65503;48.534;9.062;2023-03-26T13:17:02;95705.00;;;15.66;36.96
76611;BME280;65503;48.534;9.062;2023-03-26T13:19:44;95707.47;;;15.44;36.55
76611;BME280;65503;48.534;9.062;2023-03-26T13:22:32;95700.41;;;15.40;38.36
76611;BME280;65503;48.534;9.062;2023-03-26T13:28:17;95700.97;;;15.55;39.81
76611;BME280;65503;48.534;9.062;2023-03-26T13:33:35;95699.44;;;15.36;43.68
76611;BME280;65503;48.534;9.062;2023-03-26T13:39:13;95690.69;;;16.22;40.67
76611;BME280;65503;48.534;9.062;2023-03-26T13:41:54;95685.19;;;15.78;42.06
76611;BME280;65503;48.534;9.062;2023-03-26T13:47:20;95670.38;;;14.79;42.68
76611;BME280;65503;48.534;9.062;2023-03-26T13:49:54;95660.84;;;14.41;43.31
76611;BME280;65503;48.534;9.062;2023-03-26T13:52:25;95658.06;;;14.08;44.67
76611;BME280;65503;48.534;9.062;2023-03-26T13:55:17;95673.78;;;13.23;47.13
76611;BME280;65503;48.534;9.062;2023-03-26T14:00:53;95661.75;;;14.87;42.88
76611;BME280;65503;48.534;9.062;2023-03-26T14:03:30;95661.47;;;15.08;41.25
76611;BME280;65503;48.534;9.062;2023-03-26T14:06:07;95673.69;;;15.04;40.80
76611;BME280;65503;48.534;9.062;2023-03-26T14:08:46;95659.78;;;14.79;41.24
76611;BME280;65503;48.534;9.062;2023-03-26T14:11:30;95657.13;;;14.61;41.45
76611;BME280;65503;48.534;9.062;2023-03-26T14:14:06;95651.34;;;14.40;42.17
76611;BME280;65503;48.534;9.062;2023-03-26T14:16:46;95646.06;;;14.40;42.71
76611;BME280;65503;48.534;9.062;2023-03-26T14:25:18;95652.91;;;15.43;40.66
76611;BME280;65503;48.534;9.062;2023-03-26T14:28:01;95654.91;;;15.19;40.74
76611;BME280;65503;48.534;9.062;2023-03-26T14:33:26;95682.53;;;14.43;45.44
76611;BME280;65503;48.534;9.062;2023-03-26T14:39:15;95673.78;;;14.00;47.94
76611;BME280;65503;48.534;9.062;2023-03-26T14:41:49;95676.91;;;14.02;46.55
76611;BME280;65503;48.534;9.062;2023-03-26T14:44:40;95671.16;;;12.46;49.85
76611;BME280;65503;48.534;9.062;2023-03-26T14:47:19;95670.63;;;12.82;49.27
76611;BME280;65503;48.534;9.062;2023-03-26T14:52:48;95684.66;;;13.46;48.37
76611;BME280;65503;48.534;9.062;2023-03-26T14:55:32;95685.81;;;13.63;47.47
76611;BME280;65503;48.534;9.062;2023-03-26T15:01:21;95706.56;;;12.34;49.00
76611;BME280;65503;48.534;9.062;2023-03-26T15:12:31;95702.63;;;10.87;54.11
76611;BME280;65503;48.534;9.062;2023-03-26T15:18:09;95709.75;;;10.14;55.25
76611;BME280;65503;48.534;9.062;2023-03-26T15:33:09;95749.25;;;7.45;74.54
76611;BME280;65503;48.534;9.062;2023-03-26T15:49:34;95745.44;;;8.35;74.53
76611;BME280;65503;48.534;9.062;2023-03-26T15:52:25;95729.81;;;8.72;73.15
76611;BME280;65503;48.534;9.062;2023-03-26T15:55:01;95740.16;;;9.10;73.10
76611;BME280;65503;48.534;9.062;2023-03-26T15:57:40;95741.84;;;9.27;70.47
76611;BME280;65503;48.534;9.062;2023-03-26T16:00:22;95735.09;;;9.36;70.67
76611;BME280;65503;48.534;9.062;2023-03-26T16:09:00;95774.94;;;9.28;69.97
76611;BME280;65503;48.534;9.062;2023-03-26T16:11:56;95777.53;;;8.69;70.56
76611;BME280;65503;48.534;9.062;2023-03-26T16:17:03;95765.63;;;8.35;71.21
76611;BME280;65503;48.534;9.062;2023-03-26T16:19:48;95776.25;;;8.28;71.67
76611;BME280;65503;48.534;9.062;2023-03-26T16:22:44;95771.81;;;8.28;69.94
76611;BME280;65503;48.534;9.062;2023-03-26T16:25:31;95790.34;;;8.44;70.20
76611;BME280;65503;48.534;9.062;2023-03-26T16:28:26;95801.66;;;8.27;70.57
76611;BME280;65503;48.534;9.062;2023-03-26T16:31:16;95793.72;;;8.39;69.61
76611;BME280;65503;48.534;9.062;2023-03-26T16:41:33;95800.25;;;8.85;67.91
76611;BME280;65503;48.534;9.062;2023-03-26T16:44:42;95814.31;;;9.01;68.76
76611;BME280;65503;48.534;9.062;2023-03-26T16:47:22;95815.25;;;9.17;68.19
76611;BME280;65503;48.534;9.062;2023-03-26T16:53:22;95813.34;;;9.39;67.29
76611;BME280;65503;48.534;9.062;2023-03-26T16:55:53;95821.09;;;9.24;67.54
76611;BME280;65503;48.534;9.062;2023-03-26T17:01:06;95817.72;;;9.01;67.45
76611;BME280;65503;48.534;9.062;2023-03-26T17:06:30;95821.56;;;8.67;68.55
76611;BME280;65503;48.534;9.062;2023-03-26T17:09:43;95826.00;;;8.88;68.04
76611;BME280;65503;48.534;9.062;2023-03-26T17:12:31;95820.50;;;8.90;67.06
76611;BME280;65503;48.534;9.062;2023-03-26T17:18:34;95827.69;;;8.78;67.74
76611;BME280;65503;48.534;9.062;2023-03-26T17:21:13;95814.44;;;8.89;67.28
76611;BME280;65503;48.534;9.062;2023-03-26T17:24:08;95829.19;;;8.95;67.04
76611;BME280;65503;48.534;9.062;2023-03-26T17:29:58;95830.31;;;8.99;66.70
76611;BME280;65503;48.534;9.062;2023-03-26T17:32:50;95829.72;;;8.92;66.24
76611;BME280;65503;48.534;9.062;2023-03-26T17:40:57;95824.84;;;9.06;67.19
76611;BME280;65503;48.534;9.062;2023-03-26T17:49:15;95821.00;;;9.13;66.58
76611;BME280;65503;48.534;9.062;2023-03-26T17:54:17;95816.63;;;8.49;68.40
76611;BME280;65503;48.534;9.062;2023-03-26T17:56:45;95810.50;;;8.60;68.30
76611;BME280;65503;48.534;9.062;2023-03-26T17:59:18;95806.44;;;8.74;67.11
76611;BME280;65503;48.534;9.062;2023-03-26T18:01:51;95813.88;;;8.39;68.32
76611;BME280;65503;48.534;9.062;2023-03-26T18:04:28;95804.31;;;8.49;68.20
76611;BME280;65503;48.534;9.062;2023-03-26T18:07:12;95805.66;;;8.52;68.20
76611;BME280;65503;48.534;9.062;2023-03-26T18:09:59;95815.91;;;8.53;67.98
76611;BME280;65503;48.534;9.062;2023-03-26T18:18:18;95828.25;;;8.14;70.07